»·PEaware :: PAL2781 RPLL-RPVP

PAL2781 :: RPLL-RPVP

FLIGHT INFORMATION

Flight Status: Arrived
Operator:
Philippine Airlines
More flights by this operator :: More flights under this callsign
Pilot: James B. (24167)
Aircraft: AIRBUS A320
(A320)
More flights by this aircraft type
Origin: RPLL Ninoy Aquino Intl
Philippines
Destination: RPVP Puerto Princesa
Philippines
More flights between these airports :: More routes between these airports
Route: BUCAL2P BUCAL M646 NOMYO NOMYO2W
File this flight plan on PilotEdge
Remarks: RMK / SIMBRIEF
Altitude:
(Current/Filed)
38,000ft
Speed:
(Current/Filed)
446kts
Departed: 03-Oct-19 12:38 AM
Arrived: 03-Oct-19 01:38 AM
Distance/Time
Traveled:
315nm/1:00
Distance/Time
To Go:
Arrived

Flight Plot

Page will automatically refresh every two minutes.

Flight plan parsing failed; only flown route is shown


Map Options




Map Legend


Flown Route
Filed Route
Departure Airport
Arrival Airport
Navaid (VOR, NDB)
Fix

Horizontal Profiles

Position Reports

Time Latitude Longitude Heading Altitude Ground
Speed
02-Oct-19 23:49 14.520953 121.010881 45 84ft 0kts
02-Oct-19 23:50 14.520953 121.010881 45 84ft 0kts
02-Oct-19 23:51 14.520953 121.010881 45 84ft 0kts
02-Oct-19 23:52 14.520953 121.010881 45 84ft 0kts
02-Oct-19 23:53 14.520953 121.010881 45 84ft 0kts
02-Oct-19 23:54 14.520953 121.010881 45 84ft 0kts
02-Oct-19 23:55 14.520953 121.010881 45 84ft 0kts
02-Oct-19 23:56 14.520953 121.010881 45 84ft 0kts
02-Oct-19 23:57 14.520953 121.010881 45 84ft 0kts
02-Oct-19 23:58 14.520953 121.010881 45 84ft 0kts
02-Oct-19 23:59 14.520953 121.010881 45 84ft 0kts
03-Oct-19 00:00 14.520953 121.010881 45 84ft 0kts
03-Oct-19 00:01 14.520953 121.010881 45 84ft 0kts
03-Oct-19 00:02 14.520953 121.010881 45 84ft 0kts
03-Oct-19 00:03 14.520953 121.010881 45 84ft 0kts
03-Oct-19 00:04 14.520953 121.010881 45 84ft 0kts
03-Oct-19 00:05 14.520953 121.010881 45 84ft 0kts
03-Oct-19 00:06 14.520953 121.010881 45 84ft 0kts
03-Oct-19 00:07 14.520953 121.010881 45 84ft 0kts
03-Oct-19 00:08 14.520953 121.010881 45 84ft 0kts
03-Oct-19 00:09 14.520953 121.010881 45 84ft 0kts
03-Oct-19 00:10 14.520953 121.010881 45 84ft 0kts
03-Oct-19 00:13 14.520953 121.010881 45 84ft 0kts
03-Oct-19 00:14 14.520953 121.010881 45 84ft 0kts
03-Oct-19 00:15 14.520953 121.010881 45 84ft 0kts
03-Oct-19 00:16 14.520953 121.010881 45 84ft 0kts
03-Oct-19 00:17 14.520953 121.010881 45 84ft 0kts
03-Oct-19 00:18 14.520953 121.010881 45 84ft 0kts
03-Oct-19 00:19 14.520953 121.010881 45 84ft 0kts
03-Oct-19 00:20 14.520953 121.010881 45 84ft 0kts
03-Oct-19 00:21 14.520953 121.010881 45 84ft 0kts
03-Oct-19 00:22 14.520953 121.010881 45 84ft 0kts
03-Oct-19 00:23 14.520820 121.010738 45 84ft 2kts
03-Oct-19 00:24 14.520402 121.010289 57 84ft 2kts
03-Oct-19 00:25 14.520453 121.009808 137 84ft 0kts
03-Oct-19 00:26 14.520212 121.010066 134 84ft 0kts
03-Oct-19 00:27 14.520212 121.010066 134 84ft 0kts
03-Oct-19 00:28 14.520185 121.010093 135 84ft 0kts
03-Oct-19 00:29 14.519099 121.011202 135 84ft 10kts
03-Oct-19 00:30 14.516850 121.013540 135 84ft 12kts
03-Oct-19 00:31 14.514437 121.015860 185 84ft 8kts
03-Oct-19 00:32 14.512199 121.017324 135 84ft 11kts
03-Oct-19 00:33 14.510381 121.019775 62 84ft 10kts
03-Oct-19 00:34 14.512399 121.023448 60 84ft 15kts
03-Oct-19 00:35 14.514607 121.027388 60 84ft 9kts
03-Oct-19 00:36 14.514503 121.028700 148 84ft 7kts
03-Oct-19 00:37 14.510818 121.023469 240 84ft 105kts
03-Oct-19 00:38 14.488677 120.982638 242 2640ft 169kts
03-Oct-19 00:39 14.464111 120.938602 238 5577ft 197kts
03-Oct-19 00:40 14.429904 120.880022 232 7680ft 276kts
03-Oct-19 00:41 14.355178 120.850963 197 9905ft 298kts
03-Oct-19 00:42 14.270325 120.821510 198 12229ft 342kts
03-Oct-19 00:43 14.176837 120.788320 199 14637ft 363kts
03-Oct-19 00:44 14.080729 120.754131 200 17414ft 369kts
03-Oct-19 00:45 13.981509 120.718627 200 19761ft 380kts
03-Oct-19 00:46 13.879585 120.682158 200 21742ft 394kts
03-Oct-19 00:47 13.773721 120.644305 199 23553ft 406kts
03-Oct-19 00:48 13.664568 120.605312 199 24934ft 424kts
03-Oct-19 00:49 13.553012 120.559645 205 26313ft 435kts
03-Oct-19 00:50 13.441358 120.505886 205 27650ft 444kts
03-Oct-19 00:51 13.327600 120.451178 205 28862ft 453kts
03-Oct-19 00:52 13.212350 120.395813 205 30189ft 455kts
03-Oct-19 00:53 13.097532 120.340713 205 31668ft 451kts
03-Oct-19 00:54 12.997966 120.292979 205 31898ft 448kts
03-Oct-19 00:55 12.883774 120.238282 205 31899ft 451kts
03-Oct-19 00:56 12.769619 120.183663 205 31904ft 452kts
03-Oct-19 00:57 12.655176 120.128959 205 31922ft 452kts
03-Oct-19 00:58 12.540471 120.074183 205 31908ft 450kts
03-Oct-19 00:59 12.426526 120.019825 205 31891ft 450kts
03-Oct-19 01:00 12.312505 119.965482 205 31885ft 449kts
03-Oct-19 01:01 12.198626 119.911258 205 31885ft 449kts
03-Oct-19 01:02 12.084825 119.857125 205 31998ft 447kts
03-Oct-19 01:03 11.971933 119.803472 205 31981ft 449kts
03-Oct-19 01:04 11.857852 119.749306 205 31981ft 449kts
03-Oct-19 01:05 11.744017 119.695307 205 31963ft 450kts
03-Oct-19 01:06 11.628956 119.641405 205 31983ft 451kts
03-Oct-19 01:07 11.514289 119.588225 205 31992ft 452kts
03-Oct-19 01:08 11.398642 119.534602 205 31989ft 452kts
03-Oct-19 01:09 11.284000 119.481490 205 31796ft 443kts
03-Oct-19 01:10 11.175608 119.431325 205 29168ft 410kts
03-Oct-19 01:11 11.072602 119.383677 205 27256ft 399kts
03-Oct-19 01:12 10.972749 119.337525 205 25374ft 388kts
03-Oct-19 01:13 10.876655 119.293143 205 23548ft 377kts
03-Oct-19 01:15 10.782193 119.249547 205 21740ft 367kts
03-Oct-19 01:16 10.690453 119.207237 205 19974ft 356kts
03-Oct-19 01:17 10.601178 119.166089 204 18248ft 346kts
03-Oct-19 01:18 10.514431 119.126134 204 16503ft 338kts
03-Oct-19 01:19 10.429561 119.087066 204 14873ft 328kts
03-Oct-19 01:20 10.347445 119.048665 211 13281ft 319kts
03-Oct-19 01:21 10.276749 118.996279 216 11757ft 310kts
03-Oct-19 01:22 10.207518 118.944347 216 10246ft 303kts
03-Oct-19 01:23 10.139285 118.897359 192 8808ft 295kts
03-Oct-19 01:24 10.061859 118.913917 162 7439ft 284kts
03-Oct-19 01:25 9.987254 118.936157 162 6177ft 275kts
03-Oct-19 01:26 9.914932 118.957691 162 4956ft 267kts
03-Oct-19 01:27 9.844666 118.978611 162 3778ft 260kts
03-Oct-19 01:28 9.776178 118.985358 181 3142ft 235kts
03-Oct-19 01:29 9.733121 118.952474 273 2848ft 229kts
03-Oct-19 01:30 9.736257 118.893132 273 2344ft 182kts
03-Oct-19 01:31 9.738509 118.846127 272 1423ft 155kts
03-Oct-19 01:32 9.746730 118.804854 318 1009ft 154kts
03-Oct-19 01:32 9.773348 118.781077 320 1066ft 153kts
03-Oct-19 01:34 9.787824 118.735541 273 1067ft 154kts
03-Oct-19 01:34 9.780282 118.703417 194 1031ft 145kts
03-Oct-19 01:36 9.743230 118.723313 86 504ft 137kts
03-Oct-19 01:37 9.742087 118.759226 91 58ft 65kts
03-Oct-19 01:37 9.741916 118.763012 273 49ft 9kts
03-Oct-19 01:39 9.741646 118.757287 224 61ft 6kts
03-Oct-19 01:39 9.741397 118.756200 273 62ft 4kts
03-Oct-19 01:40 9.740871 118.756006 180 62ft 0kts
03-Oct-19 01:41 9.740872 118.756006 180 62ft 0kts

Navigation Log

Ident Type
Flight plan parsing failed, navigation log unavailable